Time;durP1;ratioP1;P1;durP2;ratioP2;P2;SDS_P1;SDS_P2;PMS_P1;PMS_P2;Temp;Humidity;BMP_temperature;BMP_pressure;BME280_temperature;BME280_humidity;BME280_pressure;Samples;Min_cycle;Max_cycle;Signal;HPM_P1;HPM_P2
2022/05/29 00:01:35;;;;;;;0.82;0.82;;;12.30;99.90;;;;;;5045582;28;20212;-62
2022/05/29 00:04:02;;;;;;;0.50;0.50;;;12.20;99.90;;;;;;5041447;28;20240;-63
2022/05/29 00:06:29;;;;;;;0.60;0.60;;;12.20;99.90;;;;;;5038533;28;20306;-63
2022/05/29 00:08:56;;;;;;;0.60;0.60;;;12.20;99.90;;;;;;5040573;28;20282;-62
2022/05/29 00:11:23;;;;;;;0.52;0.52;;;12.20;99.90;;;;;;5040690;28;20314;-63
2022/05/29 00:13:50;;;;;;;0.52;0.52;;;12.10;99.90;;;;;;5034845;28;20232;-62
2022/05/29 00:16:16;;;;;;;0.90;0.90;;;12.10;99.90;;;;;;5041155;28;20294;-62
2022/05/29 00:18:45;;;;;;;0.65;0.65;;;12.20;99.90;;;;;;5041293;28;20220;-61
2022/05/29 00:21:12;;;;;;;0.95;0.95;;;12.10;99.90;;;;;;5041559;28;20287;-64
2022/05/29 00:23:43;;;;;;;0.52;0.52;;;12.10;99.90;;;;;;5038399;28;20295;-63
2022/05/29 00:26:10;;;;;;;0.70;0.70;;;12.10;99.90;;;;;;5043816;28;20218;-63
2022/05/29 00:28:37;;;;;;;0.50;0.50;;;12.10;99.90;;;;;;5038513;28;20313;-64
2022/05/29 00:31:04;;;;;;;0.75;0.75;;;12.10;99.90;;;;;;5044025;28;20224;-64
2022/05/29 00:33:31;;;;;;;0.80;0.80;;;12.20;99.90;;;;;;5038581;28;20658;-63
2022/05/29 00:35:59;;;;;;;0.90;0.90;;;12.20;99.90;;;;;;5044119;28;20307;-62
2022/05/29 00:38:27;;;;;;;0.60;0.60;;;12.20;99.90;;;;;;5039767;28;20230;-61
2022/05/29 00:41:02;;;;;;;0.68;0.68;;;12.20;99.90;;;;;;5038033;28;20211;-63
2022/05/29 00:43:29;;;;;;;0.65;0.65;;;12.30;99.90;;;;;;5042921;28;20235;-62
2022/05/29 00:45:59;;;;;;;0.50;0.50;;;12.20;99.90;;;;;;5037666;28;20298;-63
2022/05/29 00:48:27;;;;;;;0.50;0.50;;;12.30;99.90;;;;;;5057552;28;20255;-64
2022/05/29 00:50:57;;;;;;;0.57;0.57;;;12.30;99.90;;;;;;5051273;28;20255;-63
2022/05/29 00:53:25;;;;;;;0.60;0.60;;;12.40;99.90;;;;;;5052226;28;20249;-62
2022/05/29 00:55:58;;;;;;;0.70;0.70;;;12.40;99.90;;;;;;5043615;28;20227;-62
2022/05/29 00:58:26;;;;;;;0.77;0.77;;;12.40;99.90;;;;;;5030946;28;20282;-61
2022/05/29 01:00:56;;;;;;;0.63;0.63;;;12.40;99.90;;;;;;5034514;28;20253;-63
2022/05/29 01:03:22;;;;;;;0.53;0.53;;;12.40;99.90;;;;;;5034606;28;20223;-63
2022/05/29 01:05:50;;;;;;;0.80;0.80;;;12.40;99.90;;;;;;5039373;28;20231;-64
2022/05/29 01:08:20;;;;;;;0.60;0.60;;;12.40;99.90;;;;;;5046149;28;20335;-64
2022/05/29 01:11:12;;;;;;;0.82;0.82;;;12.40;99.90;;;;;;5042215;28;20287;-62
2022/05/29 01:13:52;;;;;;;0.70;0.70;;;12.40;99.90;;;;;;5052452;28;20196;-64
2022/05/29 01:16:29;;;;;;;0.77;0.77;;;12.30;99.90;;;;;;5044680;28;20265;-62
2022/05/29 01:19:07;;;;;;;0.80;0.80;;;12.30;99.90;;;;;;5042067;28;20281;-62
2022/05/29 01:21:50;;;;;;;0.70;0.70;;;12.30;99.90;;;;;;5043424;28;20211;-63
2022/05/29 01:24:52;;;;;;;0.70;0.70;;;12.30;99.90;;;;;;5028755;28;20230;-62
2022/05/29 01:27:41;;;;;;;0.70;0.70;;;12.30;99.90;;;;;;5000371;28;20651;-64
2022/05/29 01:30:13;;;;;;;0.60;0.60;;;12.40;99.90;;;;;;5041964;28;20276;-63
2022/05/29 01:32:44;;;;;;;0.85;0.85;;;12.30;99.90;;;;;;5032357;28;20286;-64
2022/05/29 01:35:16;;;;;;;0.68;0.68;;;12.30;99.90;;;;;;5047411;28;20231;-64
2022/05/29 01:37:50;;;;;;;0.70;0.70;;;12.30;99.90;;;;;;5032045;28;20306;-64
2022/05/29 01:40:26;;;;;;;0.55;0.55;;;12.40;99.90;;;;;;5043230;28;20196;-63
2022/05/29 01:42:58;;;;;;;0.60;0.60;;;12.40;99.90;;;;;;5038033;28;20639;-62
2022/05/29 01:45:32;;;;;;;0.70;0.70;;;12.40;99.90;;;;;;5044788;28;20223;-62
2022/05/29 01:48:11;;;;;;;0.65;0.65;;;12.40;99.90;;;;;;5040209;28;20223;-62
2022/05/29 01:50:44;;;;;;;0.60;0.60;;;12.50;99.90;;;;;;5039657;28;20224;-63
2022/05/29 01:53:16;;;;;;;0.60;0.60;;;12.50;99.90;;;;;;5039866;28;20209;-63
2022/05/29 01:55:46;;;;;;;0.57;0.57;;;12.60;99.90;;;;;;5037752;28;20296;-62
2022/05/29 01:58:19;;;;;;;0.60;0.60;;;12.50;99.90;;;;;;5039687;28;20307;-63
2022/05/29 02:00:48;;;;;;;0.68;0.68;;;12.50;99.90;;;;;;5033441;28;20209;-64
2022/05/29 02:03:20;;;;;;;0.70;0.70;;;12.50;99.90;;;;;;5036374;28;20305;-62
2022/05/29 02:05:51;;;;;;;0.50;0.50;;;12.60;99.90;;;;;;5046586;28;20201;-64
2022/05/29 02:08:22;;;;;;;0.68;0.68;;;12.60;99.90;;;;;;5039440;28;20311;-64
2022/05/29 02:10:53;;;;;;;0.70;0.70;;;12.70;99.90;;;;;;5042967;28;20211;-62
2022/05/29 02:13:25;;;;;;;0.83;0.83;;;12.70;99.90;;;;;;5035946;28;20192;-63
2022/05/29 02:15:58;;;;;;;0.60;0.60;;;12.70;99.90;;;;;;5043733;28;20204;-62
2022/05/29 02:18:44;;;;;;;0.60;0.60;;;12.70;99.90;;;;;;5042689;28;20230;-63
2022/05/29 02:21:16;;;;;;;0.50;0.50;;;12.70;99.90;;;;;;5043167;28;20203;-62
2022/05/29 02:23:47;;;;;;;0.70;0.70;;;12.70;99.90;;;;;;5042237;28;20295;-64
2022/05/29 02:26:18;;;;;;;0.60;0.60;;;12.60;99.90;;;;;;5043444;28;20560;-62
2022/05/29 02:28:50;;;;;;;0.68;0.60;;;12.60;99.90;;;;;;5041963;28;20220;-61
2022/05/29 02:31:26;;;;;;;0.80;0.80;;;12.50;99.90;;;;;;5043131;28;20879;-62
2022/05/29 02:33:59;;;;;;;0.60;0.60;;;12.50;99.90;;;;;;5039713;28;20197;-63
2022/05/29 02:36:36;;;;;;;0.80;0.80;;;12.40;99.90;;;;;;5045495;28;20647;-64
2022/05/29 02:39:25;;;;;;;0.50;0.50;;;12.40;99.90;;;;;;5039637;28;20243;-62
2022/05/29 02:42:05;;;;;;;0.60;0.60;;;12.30;99.90;;;;;;5039384;28;20641;-64
2022/05/29 02:44:39;;;;;;;0.70;0.70;;;12.30;99.90;;;;;;5043961;28;20202;-62
2022/05/29 02:47:19;;;;;;;0.80;0.80;;;12.30;99.90;;;;;;5046867;28;20236;-63
2022/05/29 02:49:56;;;;;;;0.80;0.80;;;12.20;99.90;;;;;;5036667;28;20398;-64
2022/05/29 02:52:23;;;;;;;0.65;0.65;;;12.10;99.90;;;;;;5044567;28;20275;-64
2022/05/29 02:54:51;;;;;;;0.70;0.70;;;12.20;99.90;;;;;;5046192;28;20210;-62
2022/05/29 02:57:18;;;;;;;0.77;0.77;;;12.10;99.90;;;;;;5055469;22;20251;-67
2022/05/29 02:59:51;;;;;;;0.68;0.68;;;12.10;99.90;;;;;;5050823;28;20210;-66
2022/05/29 03:02:27;;;;;;;0.90;0.90;;;12.20;99.90;;;;;;5055801;28;20290;-66
2022/05/29 03:05:01;;;;;;;0.75;0.75;;;12.10;99.90;;;;;;5048614;28;20290;-66
2022/05/29 03:07:39;;;;;;;0.70;0.70;;;12.10;99.90;;;;;;5052643;28;20310;-67
2022/05/29 03:10:14;;;;;;;0.70;0.70;;;12.10;99.90;;;;;;5049362;28;20733;-67
2022/05/29 03:12:52;;;;;;;0.70;0.70;;;12.00;99.90;;;;;;5041079;28;20248;-65
2022/05/29 03:15:34;;;;;;;2.53;0.90;;;12.10;99.90;;;;;;5049687;28;20293;-65
2022/05/29 03:18:14;;;;;;;0.50;0.50;;;12.00;99.90;;;;;;5045582;28;20254;-66
2022/05/29 03:20:45;;;;;;;0.90;0.90;;;11.90;99.90;;;;;;5049659;28;20288;-66
2022/05/29 03:23:24;;;;;;;0.57;0.57;;;11.90;99.90;;;;;;5050394;28;20196;-67
2022/05/29 03:25:54;;;;;;;0.97;0.97;;;11.90;99.90;;;;;;5038722;28;20232;-66
2022/05/29 03:28:26;;;;;;;0.90;0.90;;;11.90;99.90;;;;;;5042508;28;20597;-67
2022/05/29 03:30:55;;;;;;;0.97;0.97;;;11.80;99.90;;;;;;5042480;28;20231;-66
2022/05/29 03:33:24;;;;;;;0.70;0.70;;;11.80;99.90;;;;;;5051093;28;20646;-64
2022/05/29 03:36:04;;;;;;;0.65;0.65;;;11.70;99.90;;;;;;5045887;28;20312;-65
2022/05/29 03:38:31;;;;;;;0.80;0.80;;;11.70;99.90;;;;;;5053585;28;20228;-65
2022/05/29 03:40:58;;;;;;;1.30;1.20;;;11.70;99.90;;;;;;5049808;28;20195;-66
2022/05/29 03:43:25;;;;;;;1.35;1.25;;;11.70;99.90;;;;;;5055166;28;20197;-67
2022/05/29 03:45:52;;;;;;;1.48;1.38;;;11.80;99.90;;;;;;5052935;28;20205;-66
2022/05/29 03:48:19;;;;;;;1.20;1.17;;;11.80;99.90;;;;;;5054319;28;20244;-66
2022/05/29 03:50:47;;;;;;;0.95;0.95;;;11.80;99.90;;;;;;5065815;28;20204;-67
2022/05/29 03:53:14;;;;;;;1.00;1.00;;;11.80;99.90;;;;;;5054627;28;20228;-67
2022/05/29 03:55:40;;;;;;;0.88;0.88;;;11.80;99.90;;;;;;5060226;28;20218;-66
2022/05/29 03:58:07;;;;;;;0.83;0.83;;;11.80;99.90;;;;;;5046832;28;20267;-66
2022/05/29 04:00:34;;;;;;;0.70;0.70;;;11.80;99.90;;;;;;5054453;28;20242;-65
2022/05/29 04:03:02;;;;;;;0.90;0.90;;;11.90;99.90;;;;;;5048009;28;20224;-66
2022/05/29 04:05:29;;;;;;;0.80;0.80;;;11.90;99.90;;;;;;5036896;28;20205;-66
2022/05/29 04:13:29;;;;;;;1.07;1.07;;;11.80;99.90;;;;;;5048129;28;20330;-65
2022/05/29 04:15:56;;;;;;;1.00;1.00;;;11.80;99.90;;;;;;5046915;28;20204;-65
2022/05/29 04:18:23;;;;;;;0.97;0.97;;;11.80;99.90;;;;;;5044775;28;20226;-66
2022/05/29 04:20:52;;;;;;;0.80;0.80;;;11.80;99.90;;;;;;5048550;28;20235;-66
2022/05/29 04:23:20;;;;;;;1.15;1.08;;;11.80;99.90;;;;;;5045329;28;20207;-66
2022/05/29 04:25:47;;;;;;;0.90;0.90;;;12.00;99.90;;;;;;5045581;28;20273;-66
2022/05/29 04:28:14;;;;;;;0.75;0.75;;;12.00;99.90;;;;;;5045401;28;20263;-67
2022/05/29 04:30:42;;;;;;;0.70;0.70;;;12.10;99.90;;;;;;5042513;28;20291;-66
2022/05/29 04:33:09;;;;;;;1.20;1.10;;;12.20;99.90;;;;;;5048575;28;20255;-65
2022/05/29 04:35:39;;;;;;;1.20;1.10;;;12.40;99.90;;;;;;5050683;28;20303;-66
2022/05/29 04:38:06;;;;;;;0.90;0.90;;;12.30;99.90;;;;;;5048172;28;20224;-66
2022/05/29 04:40:36;;;;;;;0.90;0.90;;;12.30;99.90;;;;;;5050447;28;20204;-67
2022/05/29 04:43:03;;;;;;;1.00;1.00;;;12.30;99.90;;;;;;5053337;28;20624;-65
2022/05/29 04:45:30;;;;;;;1.10;1.10;;;12.40;99.90;;;;;;5044566;28;20287;-66
2022/05/29 04:47:57;;;;;;;1.33;1.23;;;12.30;99.90;;;;;;5053921;28;20289;-65
2022/05/29 04:50:24;;;;;;;1.33;1.17;;;12.30;99.90;;;;;;5043984;28;20228;-66
2022/05/29 04:52:51;;;;;;;1.20;1.10;;;12.20;99.90;;;;;;5044630;28;20248;-65
2022/05/29 04:55:19;;;;;;;1.15;1.10;;;12.30;99.90;;;;;;5037066;28;20208;-67
2022/05/29 04:57:47;;;;;;;0.90;0.90;;;12.30;99.90;;;;;;5046397;28;20312;-66
2022/05/29 05:00:15;;;;;;;1.10;1.00;;;12.30;99.90;;;;;;5052630;28;20204;-66
2022/05/29 05:02:43;;;;;;;1.10;1.00;;;12.30;99.90;;;;;;5044805;28;20639;-67
2022/05/29 05:05:10;;;;;;;1.65;1.00;;;12.30;99.90;;;;;;5047084;28;20625;-66
2022/05/29 05:07:37;;;;;;;1.00;1.00;;;12.40;99.90;;;;;;5051740;28;20230;-67
2022/05/29 05:10:05;;;;;;;1.15;1.10;;;12.40;99.90;;;;;;5043380;28;20646;-67
2022/05/29 05:12:32;;;;;;;1.08;1.05;;;12.30;99.90;;;;;;5042361;28;20713;-67
2022/05/29 05:15:01;;;;;;;1.30;1.20;;;12.30;99.90;;;;;;5047394;28;20227;-68
2022/05/29 05:17:27;;;;;;;1.20;1.10;;;12.30;99.90;;;;;;5042801;28;20231;-66
2022/05/29 05:19:54;;;;;;;1.20;1.08;;;12.20;99.90;;;;;;5048193;28;20201;-67
2022/05/29 05:22:21;;;;;;;1.30;1.20;;;12.30;99.90;;;;;;5044555;28;20693;-66
2022/05/29 05:24:49;;;;;;;1.30;1.20;;;12.30;99.90;;;;;;5044568;28;20207;-66
2022/05/29 05:27:16;;;;;;;0.83;0.83;;;12.30;99.90;;;;;;5047514;28;20296;-68
2022/05/29 05:29:43;;;;;;;0.80;0.80;;;12.30;99.90;;;;;;5029361;28;20232;-66
2022/05/29 05:32:13;;;;;;;0.90;0.90;;;12.40;99.90;;;;;;5043103;28;20230;-66
2022/05/29 05:34:40;;;;;;;1.13;1.10;;;12.50;99.90;;;;;;5049661;28;20242;-67
2022/05/29 05:37:08;;;;;;;1.20;1.10;;;12.60;99.90;;;;;;5044892;28;20216;-67
2022/05/29 05:39:34;;;;;;;0.70;0.70;;;12.70;99.90;;;;;;5048552;28;20214;-66
2022/05/29 05:42:01;;;;;;;0.95;0.95;;;12.70;99.90;;;;;;5043249;28;20657;-66
2022/05/29 05:44:28;;;;;;;0.90;0.90;;;12.80;99.90;;;;;;5047349;28;20203;-66
2022/05/29 05:46:56;;;;;;;0.85;0.85;;;12.90;99.90;;;;;;5045183;28;20258;-67
2022/05/29 05:49:25;;;;;;;1.00;1.00;;;12.90;99.90;;;;;;5048698;28;20200;-67
2022/05/29 05:51:54;;;;;;;0.77;0.77;;;12.90;99.90;;;;;;5043119;28;20634;-66
2022/05/29 05:54:21;;;;;;;0.97;0.93;;;12.90;99.90;;;;;;5044764;28;20232;-66
2022/05/29 05:56:51;;;;;;;1.00;1.00;;;12.90;99.90;;;;;;5048621;28;20769;-66
2022/05/29 05:59:18;;;;;;;0.88;0.88;;;12.90;99.90;;;;;;5043281;28;20200;-67
2022/05/29 06:01:45;;;;;;;1.05;1.05;;;12.70;99.90;;;;;;5043369;28;20245;-67
2022/05/29 06:04:12;;;;;;;1.20;1.10;;;12.60;99.90;;;;;;5040589;28;20569;-67
2022/05/29 06:06:41;;;;;;;1.20;1.00;;;12.60;99.90;;;;;;5050607;28;20251;-65
2022/05/29 06:09:07;;;;;;;1.30;1.20;;;12.50;99.90;;;;;;5043962;28;20653;-66
2022/05/29 06:11:39;;;;;;;0.93;0.93;;;12.40;99.90;;;;;;5049060;28;20208;-65
2022/05/29 06:14:06;;;;;;;1.20;1.20;;;12.30;99.90;;;;;;5044546;28;20200;-66
2022/05/29 06:16:33;;;;;;;1.30;1.20;;;12.30;99.90;;;;;;5042343;28;20227;-67
2022/05/29 06:19:00;;;;;;;1.10;1.00;;;12.20;99.90;;;;;;5030884;28;20227;-66
2022/05/29 06:21:27;;;;;;;1.37;1.30;;;12.20;99.90;;;;;;5051690;28;20226;-68
2022/05/29 06:23:55;;;;;;;1.20;1.13;;;12.20;99.90;;;;;;5038211;28;20196;-67
2022/05/29 06:26:22;;;;;;;1.30;1.17;;;12.10;99.90;;;;;;5043591;28;20681;-68
2022/05/29 06:28:49;;;;;;;0.90;0.90;;;12.10;99.90;;;;;;5043822;28;20236;-66
2022/05/29 06:31:16;;;;;;;1.35;1.25;;;12.00;99.90;;;;;;5048408;28;20204;-66
2022/05/29 06:33:43;;;;;;;1.43;1.20;;;12.10;99.90;;;;;;5049488;28;20316;-66
2022/05/29 06:36:12;;;;;;;0.90;0.90;;;12.20;99.90;;;;;;5056236;28;20618;-67
2022/05/29 06:38:39;;;;;;;1.17;1.10;;;12.30;99.90;;;;;;5045476;28;20211;-67
2022/05/29 06:41:10;;;;;;;1.40;1.27;;;12.30;99.90;;;;;;5048280;28;20203;-67
2022/05/29 06:43:38;;;;;;;1.10;1.10;;;12.30;99.90;;;;;;5051557;28;20651;-65
2022/05/29 06:46:06;;;;;;;1.03;1.00;;;12.40;99.90;;;;;;5043727;28;20233;-67
2022/05/29 06:48:35;;;;;;;1.10;1.10;;;12.30;99.90;;;;;;5050607;28;20307;-66
2022/05/29 06:51:04;;;;;;;1.42;1.33;;;12.40;99.90;;;;;;5053777;28;20257;-68
2022/05/29 06:53:32;;;;;;;1.30;1.20;;;12.40;99.90;;;;;;5053028;28;20220;-66
2022/05/29 06:55:59;;;;;;;1.07;1.07;;;12.40;99.90;;;;;;5046907;28;20208;-66
2022/05/29 06:58:27;;;;;;;1.05;1.05;;;12.40;99.90;;;;;;5044457;28;20228;-67
2022/05/29 07:09:10;;;;;;;1.53;1.10;;;12.50;99.90;;;;;;5065258;28;20210;-66
2022/05/29 07:11:40;;;;;;;1.20;1.20;;;12.50;99.90;;;;;;5046581;28;20247;-67
2022/05/29 07:14:09;;;;;;;1.38;1.25;;;12.60;99.90;;;;;;5047863;28;20611;-66
2022/05/29 07:16:38;;;;;;;1.20;1.10;;;12.70;99.90;;;;;;5041287;28;20220;-66
2022/05/29 07:19:05;;;;;;;1.10;1.10;;;12.80;99.90;;;;;;5048718;28;20622;-67
2022/05/29 07:21:37;;;;;;;0.90;0.90;;;13.00;99.90;;;;;;5050576;28;20211;-67
2022/05/29 07:24:04;;;;;;;1.10;1.00;;;13.00;99.90;;;;;;5025761;28;20259;-66
2022/05/29 07:26:31;;;;;;;1.10;1.00;;;13.20;99.90;;;;;;5050457;28;20298;-67
2022/05/29 07:28:58;;;;;;;1.23;1.13;;;13.30;99.90;;;;;;5039874;28;20288;-67
2022/05/29 07:31:26;;;;;;;1.10;1.10;;;13.40;99.90;;;;;;5042539;28;20200;-65
2022/05/29 07:33:53;;;;;;;1.47;1.37;;;13.40;99.90;;;;;;5043967;28;20308;-67
2022/05/29 07:36:21;;;;;;;1.20;1.20;;;13.50;99.90;;;;;;5043995;28;20239;-65
2022/05/29 07:38:48;;;;;;;1.10;1.10;;;13.40;99.90;;;;;;5043710;28;20245;-66
2022/05/29 07:44:00;;;;;;;1.35;1.30;;;13.40;99.90;;;;;;5057166;28;20202;-69
2022/05/29 07:46:28;;;;;;;1.27;1.20;;;13.20;99.90;;;;;;5037301;28;20235;-66
2022/05/29 07:48:55;;;;;;;1.40;1.30;;;13.30;99.90;;;;;;5036788;28;20240;-67
2022/05/29 07:51:22;;;;;;;1.07;1.00;;;13.20;99.90;;;;;;5043151;28;20231;-64
2022/05/29 07:53:48;;;;;;;1.23;1.13;;;13.30;99.90;;;;;;5045757;28;20256;-63
2022/05/29 07:56:16;;;;;;;1.10;1.10;;;13.30;99.90;;;;;;5038650;28;20819;-64
2022/05/29 07:58:44;;;;;;;1.47;1.00;;;13.30;99.90;;;;;;5046052;28;20662;-65
2022/05/29 08:01:11;;;;;;;1.30;1.30;;;13.30;99.90;;;;;;5044818;28;20288;-66
2022/05/29 08:03:39;;;;;;;1.07;1.07;;;13.40;99.90;;;;;;5050526;28;20203;-66
2022/05/29 08:06:06;;;;;;;1.23;1.13;;;13.40;99.90;;;;;;5049374;28;20239;-66
2022/05/29 08:08:34;;;;;;;1.37;1.20;;;13.40;99.90;;;;;;5048002;28;20576;-65
2022/05/29 08:11:02;;;;;;;0.73;0.73;;;13.50;99.90;;;;;;5045875;28;20249;-65
2022/05/29 08:13:29;;;;;;;1.00;1.00;;;13.70;99.90;;;;;;5048573;28;20252;-67
2022/05/29 08:15:56;;;;;;;1.20;1.10;;;14.10;99.90;;;;;;5041189;28;20326;-68
2022/05/29 08:18:23;;;;;;;1.23;0.90;;;14.10;99.90;;;;;;5045786;28;20247;-68
2022/05/29 08:20:53;;;;;;;0.80;0.80;;;14.20;99.90;;;;;;5045570;28;20215;-67
2022/05/29 08:23:20;;;;;;;0.77;0.77;;;14.30;99.90;;;;;;5032919;28;20291;-65
2022/05/29 08:31:15;;;;;;;0.85;0.85;;;14.20;99.90;;;;;;5049408;28;20202;-66
2022/05/29 08:33:43;;;;;;;0.65;0.65;;;14.10;99.90;;;;;;5045895;28;20264;-66
2022/05/29 08:36:14;;;;;;;0.70;0.70;;;14.20;99.90;;;;;;5048975;28;20696;-66
2022/05/29 08:38:44;;;;;;;0.50;0.50;;;14.40;99.90;;;;;;5045463;28;20753;-67
2022/05/29 08:41:16;;;;;;;1.08;0.80;;;14.50;99.90;;;;;;5039949;28;20240;-66
2022/05/29 08:43:51;;;;;;;0.47;0.47;;;14.80;99.90;;;;;;5045575;28;20196;-65
2022/05/29 08:46:23;;;;;;;0.30;0.30;;;15.00;99.90;;;;;;5045357;28;20736;-65
2022/05/29 08:48:52;;;;;;;0.47;0.47;;;15.20;99.90;;;;;;5047905;28;20295;-66
2022/05/29 08:51:36;;;;;;;0.57;0.57;;;15.20;99.90;;;;;;5048386;28;20625;-68
2022/05/29 08:54:11;;;;;;;0.57;0.57;;;15.20;99.90;;;;;;5045297;28;20323;-66
2022/05/29 08:56:44;;;;;;;0.70;0.70;;;14.90;99.90;;;;;;5045820;28;20257;-67
2022/05/29 08:59:20;;;;;;;0.40;0.40;;;14.90;99.90;;;;;;5045262;28;20211;-65
2022/05/29 09:01:55;;;;;;;0.68;0.68;;;14.80;99.90;;;;;;5042663;28;20195;-66
2022/05/29 09:04:29;;;;;;;0.40;0.40;;;14.90;99.90;;;;;;5041866;28;20231;-66
2022/05/29 09:07:00;;;;;;;0.60;0.60;;;15.10;99.90;;;;;;5041846;28;20308;-66
2022/05/29 09:09:38;;;;;;;1.45;0.80;;;15.30;99.90;;;;;;5045596;28;20674;-66
2022/05/29 09:12:08;;;;;;;0.50;0.50;;;15.30;99.90;;;;;;5036226;28;20697;-67
2022/05/29 09:14:43;;;;;;;0.50;0.50;;;15.10;99.90;;;;;;5039570;28;20228;-65
2022/05/29 09:17:14;;;;;;;0.47;0.47;;;15.30;99.90;;;;;;5041264;28;20230;-68
2022/05/29 09:19:48;;;;;;;0.40;0.40;;;15.50;99.90;;;;;;5039646;28;20201;-66
2022/05/29 09:22:21;;;;;;;0.60;0.60;;;15.60;99.90;;;;;;5037608;28;20294;-66
2022/05/29 09:25:04;;;;;;;0.60;0.60;;;15.50;99.90;;;;;;5041769;28;20288;-66
2022/05/29 09:27:32;;;;;;;0.57;0.57;;;15.70;99.90;;;;;;5036522;28;20224;-67
2022/05/29 09:29:59;;;;;;;0.50;0.50;;;16.00;99.90;;;;;;5053627;28;20880;-66
2022/05/29 09:32:28;;;;;;;0.63;0.63;;;16.40;99.90;;;;;;5051891;28;20278;-67
2022/05/29 09:35:01;;;;;;;0.60;0.60;;;16.60;99.90;;;;;;5053619;28;20624;-66
2022/05/29 09:37:39;;;;;;;0.40;0.40;;;16.80;99.90;;;;;;5053588;28;20204;-67
2022/05/29 09:40:13;;;;;;;0.73;0.73;;;16.90;99.90;;;;;;5045016;28;20746;-67
2022/05/29 09:42:42;;;;;;;0.50;0.50;;;16.80;99.90;;;;;;5036934;28;20291;-66
2022/05/29 09:45:15;;;;;;;0.60;0.60;;;16.30;99.90;;;;;;5037841;28;20196;-67
2022/05/29 09:50:44;;;;;;;0.68;0.50;;;16.20;99.90;;;;;;5042460;28;20207;-65
2022/05/29 09:53:16;;;;;;;0.35;0.35;;;16.30;99.90;;;;;;5037375;28;20320;-66
2022/05/29 09:55:51;;;;;;;0.50;0.50;;;16.40;99.90;;;;;;5035392;28;20234;-65
2022/05/29 09:58:24;;;;;;;0.50;0.50;;;16.40;99.90;;;;;;5026734;28;20609;-68
2022/05/29 10:00:58;;;;;;;0.70;0.70;;;16.30;99.90;;;;;;5034594;28;20211;-67
2022/05/29 10:03:40;;;;;;;0.50;0.50;;;16.30;99.90;;;;;;5035798;28;20236;-67
2022/05/29 10:06:18;;;;;;;0.70;0.70;;;16.20;99.90;;;;;;5043883;28;20287;-67
2022/05/29 10:08:51;;;;;;;0.75;0.60;;;16.30;99.90;;;;;;5043458;28;20228;-66
2022/05/29 10:11:22;;;;;;;0.50;0.50;;;16.40;99.90;;;;;;5049425;28;20227;-65
2022/05/29 10:13:51;;;;;;;0.60;0.60;;;16.80;99.90;;;;;;5041265;28;20274;-66
2022/05/29 10:16:34;;;;;;;0.60;0.60;;;16.90;99.90;;;;;;5040753;28;20196;-66
2022/05/29 10:19:01;;;;;;;0.57;0.57;;;16.90;99.90;;;;;;5042885;28;20228;-65
2022/05/29 10:21:30;;;;;;;0.80;0.80;;;17.20;99.90;;;;;;5040016;28;20657;-65
2022/05/29 10:24:14;;;;;;;0.50;0.50;;;17.30;99.90;;;;;;5041706;28;20227;-65
2022/05/29 10:26:41;;;;;;;0.70;0.70;;;17.10;99.90;;;;;;5043586;28;20227;-66
2022/05/29 10:29:17;;;;;;;0.93;0.90;;;17.20;99.90;;;;;;5043127;28;20214;-66
2022/05/29 10:31:49;;;;;;;0.77;0.77;;;17.10;99.90;;;;;;5044990;28;20254;-66
2022/05/29 10:34:23;;;;;;;0.50;0.50;;;17.00;99.90;;;;;;5043457;28;20275;-68
2022/05/29 10:36:50;;;;;;;0.65;0.65;;;17.00;99.90;;;;;;5042784;28;20256;-65
2022/05/29 10:39:23;;;;;;;0.80;0.80;;;17.00;99.90;;;;;;5035647;28;20284;-66
2022/05/29 10:41:52;;;;;;;0.90;0.90;;;17.10;99.90;;;;;;5037959;28;20291;-67
2022/05/29 10:44:40;;;;;;;0.70;0.70;;;17.30;99.90;;;;;;5040318;28;20196;-66
2022/05/29 10:47:16;;;;;;;0.80;0.80;;;17.50;99.90;;;;;;5044754;28;20255;-66
2022/05/29 10:49:51;;;;;;;0.80;0.80;;;17.50;99.90;;;;;;5037745;28;20274;-65
2022/05/29 10:52:35;;;;;;;0.75;0.75;;;17.60;99.90;;;;;;5038082;28;20302;-66
2022/05/29 10:55:24;;;;;;;0.50;0.50;;;17.80;99.90;;;;;;5039235;28;20216;-67
2022/05/29 10:58:09;;;;;;;0.80;0.80;;;17.80;99.90;;;;;;5038367;28;20315;-66
2022/05/29 11:00:51;;;;;;;0.80;0.80;;;17.70;99.90;;;;;;5037414;28;20212;-66
2022/05/29 11:03:51;;;;;;;0.90;0.90;;;17.60;99.90;;;;;;5027296;28;20227;-67
2022/05/29 11:06:45;;;;;;;0.73;0.73;;;17.90;99.90;;;;;;5042969;28;20200;-67
2022/05/29 11:09:35;;;;;;;0.60;0.60;;;18.10;99.90;;;;;;5037766;28;20730;-67
2022/05/29 11:12:14;;;;;;;0.82;0.82;;;18.10;99.90;;;;;;5043917;28;20283;-66
2022/05/29 11:15:01;;;;;;;0.90;0.90;;;17.80;99.90;;;;;;5039546;28;20315;-65
2022/05/29 11:17:44;;;;;;;0.88;0.88;;;18.00;99.90;;;;;;5046387;28;20248;-68
2022/05/29 11:20:31;;;;;;;0.90;0.90;;;18.00;99.90;;;;;;5042541;28;20230;-65
2022/05/29 11:23:18;;;;;;;0.90;0.90;;;17.90;99.90;;;;;;5040111;28;20251;-70
2022/05/29 11:25:56;;;;;;;1.23;1.13;;;18.20;99.90;;;;;;5055785;28;20207;-67
2022/05/29 11:28:49;;;;;;;1.00;0.80;;;18.40;99.90;;;;;;5054100;28;20351;-67
2022/05/29 11:31:32;;;;;;;0.80;0.80;;;18.20;99.90;;;;;;5047812;28;20208;-66
2022/05/29 11:34:14;;;;;;;1.08;1.00;;;18.10;99.90;;;;;;5045716;28;20913;-67
2022/05/29 11:36:52;;;;;;;0.80;0.80;;;18.30;99.90;;;;;;5047215;28;20301;-66
2022/05/29 11:39:27;;;;;;;0.80;0.80;;;18.30;99.90;;;;;;5045694;28;20243;-66
2022/05/29 11:42:01;;;;;;;1.58;1.00;;;18.20;99.90;;;;;;5053094;28;20632;-67
2022/05/29 11:44:35;;;;;;;1.00;0.98;;;18.30;99.90;;;;;;5046213;28;20681;-66
2022/05/29 11:52:49;;;;;;;0.88;0.88;;;18.40;99.90;;;;;;5042723;28;20661;-67
2022/05/29 11:55:19;;;;;;;0.80;0.80;;;18.40;99.90;;;;;;5045696;28;20311;-66
2022/05/29 11:57:51;;;;;;;1.00;1.00;;;18.40;99.90;;;;;;5040010;28;20232;-67
2022/05/29 12:00:36;;;;;;;0.90;0.90;;;18.50;99.90;;;;;;5040811;28;20219;-65
2022/05/29 12:03:27;;;;;;;0.70;0.70;;;18.60;99.90;;;;;;5044671;28;20204;-67
2022/05/29 12:06:01;;;;;;;1.02;1.00;;;18.70;99.90;;;;;;5050379;28;20211;-66
2022/05/29 12:08:34;;;;;;;0.80;0.80;;;18.60;99.90;;;;;;5047012;28;20279;-66
2022/05/29 12:11:12;;;;;;;0.90;0.90;;;18.70;99.90;;;;;;5045556;28;20236;-67
2022/05/29 12:13:52;;;;;;;0.70;0.70;;;19.10;99.90;;;;;;5055751;28;20224;-65
2022/05/29 12:16:27;;;;;;;0.77;0.77;;;18.80;99.90;;;;;;5048802;28;20210;-67
2022/05/29 12:18:56;;;;;;;0.88;0.88;;;18.60;99.90;;;;;;5043151;28;20199;-66
2022/05/29 12:21:31;;;;;;;0.85;0.85;;;18.60;99.90;;;;;;5051851;28;20204;-68
2022/05/29 12:24:02;;;;;;;0.98;0.90;;;18.60;99.90;;;;;;5047128;28;20611;-67
2022/05/29 12:26:36;;;;;;;0.70;0.70;;;18.80;99.90;;;;;;5045676;28;20220;-67
2022/05/29 12:29:08;;;;;;;0.75;0.75;;;18.70;99.90;;;;;;5044438;28;20215;-65
2022/05/29 12:31:40;;;;;;;0.85;0.77;;;18.30;99.90;;;;;;5047684;28;20770;-67
2022/05/29 12:34:15;;;;;;;0.70;0.70;;;18.00;99.90;;;;;;5047492;28;20250;-65
2022/05/29 12:37:01;;;;;;;0.77;0.70;;;17.90;99.90;;;;;;5057214;28;20231;-66
2022/05/29 12:39:41;;;;;;;0.60;0.60;;;18.20;99.90;;;;;;5049846;28;20539;-67
2022/05/29 12:42:33;;;;;;;0.88;0.88;;;18.70;99.90;;;;;;5050278;28;20239;-67
2022/05/29 12:45:29;;;;;;;0.80;0.80;;;18.60;99.90;;;;;;5041721;28;20199;-65
2022/05/29 12:48:30;;;;;;;0.70;0.70;;;18.60;99.90;;;;;;5032628;28;20248;-66
2022/05/29 12:51:21;;;;;;;0.90;0.90;;;18.60;99.90;;;;;;5037863;28;20212;-66
2022/05/29 12:54:25;;;;;;;0.53;0.53;;;19.00;99.90;;;;;;5039479;28;20263;-68
2022/05/29 12:57:10;;;;;;;0.65;0.65;;;18.80;99.90;;;;;;5031593;28;20243;-66
2022/05/29 13:00:07;;;;;;;0.70;0.70;;;18.90;99.90;;;;;;5040044;28;20244;-65
2022/05/29 13:02:52;;;;;;;0.65;0.65;;;18.90;99.90;;;;;;5034248;28;20633;-65
2022/05/29 13:05:43;;;;;;;0.60;0.60;;;19.00;99.90;;;;;;5037576;28;20200;-66
2022/05/29 13:08:43;;;;;;;0.75;0.63;;;18.70;99.90;;;;;;5052522;28;20221;-65
2022/05/29 13:11:11;;;;;;;0.77;0.77;;;18.70;99.90;;;;;;5030101;28;20616;-68
2022/05/29 13:13:43;;;;;;;0.85;0.85;;;18.50;99.90;;;;;;5033285;28;20235;-67
2022/05/29 13:16:22;;;;;;;0.80;0.80;;;18.40;99.90;;;;;;5039442;28;20261;-68
2022/05/29 13:19:14;;;;;;;0.82;0.82;;;18.40;99.90;;;;;;5040834;28;20200;-67
2022/05/29 13:22:01;;;;;;;0.93;0.93;;;18.80;99.90;;;;;;5040121;28;20701;-66
2022/05/29 13:24:31;;;;;;;0.70;0.70;;;18.90;99.90;;;;;;5051769;28;20241;-67
2022/05/29 13:27:32;;;;;;;0.70;0.70;;;18.80;99.90;;;;;;5053696;28;20225;-66
2022/05/29 13:30:02;;;;;;;0.57;0.57;;;18.80;99.90;;;;;;5047184;28;20234;-65
2022/05/29 13:32:31;;;;;;;0.70;0.70;;;19.00;99.90;;;;;;5050839;28;20647;-66
2022/05/29 13:35:37;;;;;;;0.80;0.80;;;19.30;99.90;;;;;;5038709;28;20323;-66
2022/05/29 13:38:06;;;;;;;0.82;0.82;;;19.30;99.90;;;;;;5035238;28;20219;-65
2022/05/29 13:40:45;;;;;;;0.73;0.73;;;19.30;99.90;;;;;;5039311;28;20210;-66
2022/05/29 13:43:38;;;;;;;1.00;1.00;;;19.10;99.90;;;;;;5040360;28;20622;-66
2022/05/29 13:46:19;;;;;;;0.88;0.88;;;19.00;99.90;;;;;;5035255;28;20310;-67
2022/05/29 13:49:03;;;;;;;0.93;0.93;;;19.20;99.90;;;;;;5043149;28;20226;-67